sensor_id;sensor_type;location;lat;lon;timestamp;P1;durP1;ratioP1;P2;durP2;ratioP2
23046;SDS011;11691;51.462;6.902;2023-07-29T00:01:13;3.85;;;2.10;;
23046;SDS011;11691;51.462;6.902;2023-07-29T00:03:39;3.50;;;2.22;;
23046;SDS011;11691;51.462;6.902;2023-07-29T00:06:05;3.45;;;2.50;;
23046;SDS011;11691;51.462;6.902;2023-07-29T00:08:32;3.70;;;2.25;;
23046;SDS011;11691;51.462;6.902;2023-07-29T00:10:57;3.92;;;2.25;;
23046;SDS011;11691;51.462;6.902;2023-07-29T00:13:23;2.75;;;2.33;;
23046;SDS011;11691;51.462;6.902;2023-07-29T00:15:50;3.83;;;3.13;;
23046;SDS011;11691;51.462;6.902;2023-07-29T00:18:16;2.85;;;2.33;;
23046;SDS011;11691;51.462;6.902;2023-07-29T00:20:42;6.80;;;2.72;;
23046;SDS011;11691;51.462;6.902;2023-07-29T00:23:08;4.40;;;2.55;;
23046;SDS011;11691;51.462;6.902;2023-07-29T00:25:34;4.32;;;3.38;;
23046;SDS011;11691;51.462;6.902;2023-07-29T00:28:00;4.15;;;2.80;;
23046;SDS011;11691;51.462;6.902;2023-07-29T00:30:26;4.88;;;3.00;;
23046;SDS011;11691;51.462;6.902;2023-07-29T00:32:52;6.00;;;2.72;;
23046;SDS011;11691;51.462;6.902;2023-07-29T00:35:18;5.28;;;2.60;;
23046;SDS011;11691;51.462;6.902;2023-07-29T00:37:44;3.78;;;2.67;;
23046;SDS011;11691;51.462;6.902;2023-07-29T00:40:19;4.60;;;2.78;;
23046;SDS011;11691;51.462;6.902;2023-07-29T00:42:45;4.82;;;2.95;;
23046;SDS011;11691;51.462;6.902;2023-07-29T00:45:11;7.55;;;3.05;;
23046;SDS011;11691;51.462;6.902;2023-07-29T00:47:38;4.65;;;3.25;;
23046;SDS011;11691;51.462;6.902;2023-07-29T00:50:04;3.10;;;2.80;;
23046;SDS011;11691;51.462;6.902;2023-07-29T00:52:32;2.85;;;2.58;;
23046;SDS011;11691;51.462;6.902;2023-07-29T00:54:58;5.60;;;2.90;;
23046;SDS011;11691;51.462;6.902;2023-07-29T00:57:24;5.30;;;2.92;;
23046;SDS011;11691;51.462;6.902;2023-07-29T00:59:51;5.43;;;2.58;;
23046;SDS011;11691;51.462;6.902;2023-07-29T01:02:17;3.60;;;3.03;;
23046;SDS011;11691;51.462;6.902;2023-07-29T01:04:43;3.65;;;2.25;;
23046;SDS011;11691;51.462;6.902;2023-07-29T01:07:23;5.90;;;2.92;;
23046;SDS011;11691;51.462;6.902;2023-07-29T01:09:55;4.00;;;2.40;;
23046;SDS011;11691;51.462;6.902;2023-07-29T01:12:31;4.72;;;2.70;;
23046;SDS011;11691;51.462;6.902;2023-07-29T01:15:22;3.95;;;2.83;;
23046;SDS011;11691;51.462;6.902;2023-07-29T01:17:56;4.75;;;2.47;;
23046;SDS011;11691;51.462;6.902;2023-07-29T01:20:25;4.32;;;2.83;;
23046;SDS011;11691;51.462;6.902;2023-07-29T01:22:51;6.10;;;2.47;;
23046;SDS011;11691;51.462;6.902;2023-07-29T01:25:17;5.25;;;2.75;;
23046;SDS011;11691;51.462;6.902;2023-07-29T01:27:44;3.10;;;2.70;;
23046;SDS011;11691;51.462;6.902;2023-07-29T01:30:10;4.63;;;2.83;;
23046;SDS011;11691;51.462;6.902;2023-07-29T01:35:33;3.85;;;2.80;;
23046;SDS011;11691;51.462;6.902;2023-07-29T01:38:03;3.22;;;2.47;;
23046;SDS011;11691;51.462;6.902;2023-07-29T01:40:31;4.28;;;2.30;;
23046;SDS011;11691;51.462;6.902;2023-07-29T01:42:58;2.88;;;2.60;;
23046;SDS011;11691;51.462;6.902;2023-07-29T01:45:25;5.63;;;2.83;;
23046;SDS011;11691;51.462;6.902;2023-07-29T01:47:51;3.10;;;2.55;;
23046;SDS011;11691;51.462;6.902;2023-07-29T01:50:17;4.82;;;2.30;;
23046;SDS011;11691;51.462;6.902;2023-07-29T01:52:43;5.05;;;2.72;;
23046;SDS011;11691;51.462;6.902;2023-07-29T01:55:09;3.08;;;2.45;;
23046;SDS011;11691;51.462;6.902;2023-07-29T01:57:35;3.88;;;2.78;;
23046;SDS011;11691;51.462;6.902;2023-07-29T02:00:01;3.00;;;2.60;;
23046;SDS011;11691;51.462;6.902;2023-07-29T02:02:29;3.92;;;2.72;;
23046;SDS011;11691;51.462;6.902;2023-07-29T02:04:55;4.57;;;2.55;;
23046;SDS011;11691;51.462;6.902;2023-07-29T02:07:21;3.33;;;2.80;;
23046;SDS011;11691;51.462;6.902;2023-07-29T02:09:47;2.65;;;2.45;;
23046;SDS011;11691;51.462;6.902;2023-07-29T02:12:13;3.10;;;2.40;;
23046;SDS011;11691;51.462;6.902;2023-07-29T02:14:39;3.00;;;2.70;;
23046;SDS011;11691;51.462;6.902;2023-07-29T02:17:05;3.83;;;2.90;;
23046;SDS011;11691;51.462;6.902;2023-07-29T02:19:31;5.45;;;2.60;;
23046;SDS011;11691;51.462;6.902;2023-07-29T02:21:57;4.80;;;2.40;;
23046;SDS011;11691;51.462;6.902;2023-07-29T02:24:23;3.33;;;2.40;;
23046;SDS011;11691;51.462;6.902;2023-07-29T02:26:49;4.07;;;2.60;;
23046;SDS011;11691;51.462;6.902;2023-07-29T02:29:15;4.68;;;2.58;;
23046;SDS011;11691;51.462;6.902;2023-07-29T02:31:41;4.93;;;2.63;;
23046;SDS011;11691;51.462;6.902;2023-07-29T02:34:09;3.47;;;2.75;;
23046;SDS011;11691;51.462;6.902;2023-07-29T02:36:35;6.45;;;2.70;;
23046;SDS011;11691;51.462;6.902;2023-07-29T02:39:01;4.95;;;2.40;;
23046;SDS011;11691;51.462;6.902;2023-07-29T02:41:27;4.32;;;3.03;;
23046;SDS011;11691;51.462;6.902;2023-07-29T02:43:53;2.67;;;2.47;;
23046;SDS011;11691;51.462;6.902;2023-07-29T02:46:19;5.10;;;2.78;;
23046;SDS011;11691;51.462;6.902;2023-07-29T02:48:45;4.05;;;3.10;;
23046;SDS011;11691;51.462;6.902;2023-07-29T02:51:11;3.33;;;2.90;;
23046;SDS011;11691;51.462;6.902;2023-07-29T02:53:37;7.45;;;3.03;;
23046;SDS011;11691;51.462;6.902;2023-07-29T02:56:03;5.65;;;3.08;;
23046;SDS011;11691;51.462;6.902;2023-07-29T02:58:29;7.00;;;3.10;;
23046;SDS011;11691;51.462;6.902;2023-07-29T03:01:05;7.65;;;3.30;;
23046;SDS011;11691;51.462;6.902;2023-07-29T03:03:31;3.58;;;3.28;;
23046;SDS011;11691;51.462;6.902;2023-07-29T03:06:01;5.50;;;3.80;;
23046;SDS011;11691;51.462;6.902;2023-07-29T03:08:28;5.72;;;4.03;;
23046;SDS011;11691;51.462;6.902;2023-07-29T03:10:55;4.82;;;3.83;;
23046;SDS011;11691;51.462;6.902;2023-07-29T03:13:21;4.75;;;3.67;;
23046;SDS011;11691;51.462;6.902;2023-07-29T03:15:47;4.25;;;3.45;;
23046;SDS011;11691;51.462;6.902;2023-07-29T03:18:14;4.40;;;3.67;;
23046;SDS011;11691;51.462;6.902;2023-07-29T03:20:40;6.28;;;3.78;;
23046;SDS011;11691;51.462;6.902;2023-07-29T03:23:06;4.72;;;3.55;;
23046;SDS011;11691;51.462;6.902;2023-07-29T03:25:32;4.78;;;3.47;;
23046;SDS011;11691;51.462;6.902;2023-07-29T03:27:58;6.30;;;4.35;;
23046;SDS011;11691;51.462;6.902;2023-07-29T03:30:24;5.30;;;3.80;;
23046;SDS011;11691;51.462;6.902;2023-07-29T03:32:50;5.72;;;4.28;;
23046;SDS011;11691;51.462;6.902;2023-07-29T03:35:16;7.72;;;4.13;;
23046;SDS011;11691;51.462;6.902;2023-07-29T03:37:42;5.25;;;4.20;;
23046;SDS011;11691;51.462;6.902;2023-07-29T03:40:08;5.90;;;4.40;;
23046;SDS011;11691;51.462;6.902;2023-07-29T03:42:34;8.02;;;5.00;;
23046;SDS011;11691;51.462;6.902;2023-07-29T03:45:00;5.53;;;4.72;;
23046;SDS011;11691;51.462;6.902;2023-07-29T03:47:27;9.02;;;5.55;;
23046;SDS011;11691;51.462;6.902;2023-07-29T03:49:53;5.55;;;5.05;;
23046;SDS011;11691;51.462;6.902;2023-07-29T03:52:19;7.72;;;5.28;;
23046;SDS011;11691;51.462;6.902;2023-07-29T03:54:45;5.95;;;4.97;;
23046;SDS011;11691;51.462;6.902;2023-07-29T03:57:11;6.93;;;4.95;;
23046;SDS011;11691;51.462;6.902;2023-07-29T03:59:37;5.47;;;4.70;;
23046;SDS011;11691;51.462;6.902;2023-07-29T04:02:03;6.28;;;4.78;;
23046;SDS011;11691;51.462;6.902;2023-07-29T04:04:29;6.22;;;4.72;;
23046;SDS011;11691;51.462;6.902;2023-07-29T04:06:55;6.15;;;4.40;;
23046;SDS011;11691;51.462;6.902;2023-07-29T04:09:21;5.47;;;4.63;;
23046;SDS011;11691;51.462;6.902;2023-07-29T04:11:48;6.05;;;4.78;;
23046;SDS011;11691;51.462;6.902;2023-07-29T04:14:14;7.05;;;4.60;;
23046;SDS011;11691;51.462;6.902;2023-07-29T04:16:40;6.75;;;4.47;;
23046;SDS011;11691;51.462;6.902;2023-07-29T04:19:06;7.03;;;4.05;;
23046;SDS011;11691;51.462;6.902;2023-07-29T04:21:32;4.50;;;3.33;;
23046;SDS011;11691;51.462;6.902;2023-07-29T04:23:58;5.68;;;3.42;;
23046;SDS011;11691;51.462;6.902;2023-07-29T04:26:24;4.53;;;3.20;;
23046;SDS011;11691;51.462;6.902;2023-07-29T04:28:50;6.03;;;3.50;;
23046;SDS011;11691;51.462;6.902;2023-07-29T04:31:16;3.85;;;3.40;;
23046;SDS011;11691;51.462;6.902;2023-07-29T04:33:42;6.70;;;3.33;;
23046;SDS011;11691;51.462;6.902;2023-07-29T04:36:08;6.05;;;3.28;;
23046;SDS011;11691;51.462;6.902;2023-07-29T04:38:36;5.60;;;3.28;;
23046;SDS011;11691;51.462;6.902;2023-07-29T04:41:03;8.40;;;3.67;;
23046;SDS011;11691;51.462;6.902;2023-07-29T04:43:32;4.47;;;3.60;;
23046;SDS011;11691;51.462;6.902;2023-07-29T04:45:58;4.65;;;3.53;;
23046;SDS011;11691;51.462;6.902;2023-07-29T04:48:24;4.57;;;3.53;;
23046;SDS011;11691;51.462;6.902;2023-07-29T04:50:50;4.68;;;3.38;;
23046;SDS011;11691;51.462;6.902;2023-07-29T04:53:16;5.43;;;4.20;;
23046;SDS011;11691;51.462;6.902;2023-07-29T04:55:42;7.05;;;5.35;;
23046;SDS011;11691;51.462;6.902;2023-07-29T04:58:08;6.25;;;5.20;;
23046;SDS011;11691;51.462;6.902;2023-07-29T05:00:34;7.00;;;6.15;;
23046;SDS011;11691;51.462;6.902;2023-07-29T05:03:00;9.02;;;7.05;;
23046;SDS011;11691;51.462;6.902;2023-07-29T05:05:26;7.55;;;6.70;;
23046;SDS011;11691;51.462;6.902;2023-07-29T05:07:52;10.77;;;7.28;;
23046;SDS011;11691;51.462;6.902;2023-07-29T05:10:18;8.32;;;6.30;;
23046;SDS011;11691;51.462;6.902;2023-07-29T05:12:45;8.90;;;7.45;;
23046;SDS011;11691;51.462;6.902;2023-07-29T05:15:11;10.10;;;7.10;;
23046;SDS011;11691;51.462;6.902;2023-07-29T05:17:37;8.32;;;6.55;;
23046;SDS011;11691;51.462;6.902;2023-07-29T05:20:03;9.13;;;7.45;;
23046;SDS011;11691;51.462;6.902;2023-07-29T05:22:29;10.68;;;7.85;;
23046;SDS011;11691;51.462;6.902;2023-07-29T05:24:55;10.95;;;8.13;;
23046;SDS011;11691;51.462;6.902;2023-07-29T05:27:21;10.30;;;8.70;;
23046;SDS011;11691;51.462;6.902;2023-07-29T05:29:47;15.10;;;9.50;;
23046;SDS011;11691;51.462;6.902;2023-07-29T05:32:13;10.32;;;9.10;;
23046;SDS011;11691;51.462;6.902;2023-07-29T05:34:39;10.43;;;8.60;;
23046;SDS011;11691;51.462;6.902;2023-07-29T05:37:05;9.88;;;8.23;;
23046;SDS011;11691;51.462;6.902;2023-07-29T05:39:31;8.80;;;7.13;;
23046;SDS011;11691;51.462;6.902;2023-07-29T05:41:58;11.35;;;6.75;;
23046;SDS011;11691;51.462;6.902;2023-07-29T05:44:27;7.25;;;5.85;;
23046;SDS011;11691;51.462;6.902;2023-07-29T05:46:53;6.53;;;4.85;;
23046;SDS011;11691;51.462;6.902;2023-07-29T05:49:19;4.68;;;3.60;;
23046;SDS011;11691;51.462;6.902;2023-07-29T05:51:45;4.05;;;3.40;;
23046;SDS011;11691;51.462;6.902;2023-07-29T05:54:11;3.83;;;2.95;;
23046;SDS011;11691;51.462;6.902;2023-07-29T05:56:37;4.72;;;3.47;;
23046;SDS011;11691;51.462;6.902;2023-07-29T05:59:03;4.22;;;2.90;;
23046;SDS011;11691;51.462;6.902;2023-07-29T06:01:29;3.13;;;2.60;;
23046;SDS011;11691;51.462;6.902;2023-07-29T06:03:55;2.50;;;2.30;;
23046;SDS011;11691;51.462;6.902;2023-07-29T06:06:21;6.28;;;2.38;;
23046;SDS011;11691;51.462;6.902;2023-07-29T06:08:48;3.55;;;2.10;;
23046;SDS011;11691;51.462;6.902;2023-07-29T06:11:14;3.72;;;2.50;;
23046;SDS011;11691;51.462;6.902;2023-07-29T06:13:40;4.00;;;2.20;;
23046;SDS011;11691;51.462;6.902;2023-07-29T06:16:06;4.07;;;1.95;;
23046;SDS011;11691;51.462;6.902;2023-07-29T06:18:32;3.55;;;1.80;;
23046;SDS011;11691;51.462;6.902;2023-07-29T06:20:58;2.83;;;1.90;;
23046;SDS011;11691;51.462;6.902;2023-07-29T06:23:24;3.80;;;2.05;;
23046;SDS011;11691;51.462;6.902;2023-07-29T06:25:50;4.50;;;2.58;;
23046;SDS011;11691;51.462;6.902;2023-07-29T06:28:16;3.13;;;2.05;;
23046;SDS011;11691;51.462;6.902;2023-07-29T06:30:42;4.72;;;1.80;;
23046;SDS011;11691;51.462;6.902;2023-07-29T06:33:08;2.17;;;1.73;;
23046;SDS011;11691;51.462;6.902;2023-07-29T06:35:34;2.47;;;1.77;;
23046;SDS011;11691;51.462;6.902;2023-07-29T06:38:00;2.33;;;1.88;;
23046;SDS011;11691;51.462;6.902;2023-07-29T06:40:26;3.80;;;2.03;;
23046;SDS011;11691;51.462;6.902;2023-07-29T06:42:52;2.75;;;2.08;;
23046;SDS011;11691;51.462;6.902;2023-07-29T06:45:18;2.85;;;2.17;;
23046;SDS011;11691;51.462;6.902;2023-07-29T06:47:44;2.90;;;2.00;;
23046;SDS011;11691;51.462;6.902;2023-07-29T06:50:10;3.97;;;1.73;;
23046;SDS011;11691;51.462;6.902;2023-07-29T06:52:36;4.72;;;2.35;;
23046;SDS011;11691;51.462;6.902;2023-07-29T06:55:03;2.78;;;1.70;;
23046;SDS011;11691;51.462;6.902;2023-07-29T06:57:29;3.05;;;1.95;;
23046;SDS011;11691;51.462;6.902;2023-07-29T06:59:55;2.47;;;1.70;;
23046;SDS011;11691;51.462;6.902;2023-07-29T07:02:21;3.17;;;1.42;;
23046;SDS011;11691;51.462;6.902;2023-07-29T07:04:47;3.03;;;1.77;;
23046;SDS011;11691;51.462;6.902;2023-07-29T07:07:13;2.83;;;1.80;;
23046;SDS011;11691;51.462;6.902;2023-07-29T07:09:39;3.40;;;1.50;;
23046;SDS011;11691;51.462;6.902;2023-07-29T07:12:05;3.35;;;1.73;;
23046;SDS011;11691;51.462;6.902;2023-07-29T07:14:31;4.18;;;1.30;;
23046;SDS011;11691;51.462;6.902;2023-07-29T07:16:57;2.47;;;1.50;;
23046;SDS011;11691;51.462;6.902;2023-07-29T07:19:23;2.42;;;1.50;;
23046;SDS011;11691;51.462;6.902;2023-07-29T07:21:49;3.78;;;1.60;;
23046;SDS011;11691;51.462;6.902;2023-07-29T07:24:15;3.45;;;1.13;;
23046;SDS011;11691;51.462;6.902;2023-07-29T07:26:41;3.38;;;1.58;;
23046;SDS011;11691;51.462;6.902;2023-07-29T07:29:07;4.32;;;1.13;;
23046;SDS011;11691;51.462;6.902;2023-07-29T07:31:33;3.17;;;1.10;;
23046;SDS011;11691;51.462;6.902;2023-07-29T07:34:00;2.53;;;1.27;;
23046;SDS011;11691;51.462;6.902;2023-07-29T07:36:27;1.35;;;1.00;;
23046;SDS011;11691;51.462;6.902;2023-07-29T07:38:53;2.50;;;1.30;;
23046;SDS011;11691;51.462;6.902;2023-07-29T07:41:19;1.38;;;1.00;;
23046;SDS011;11691;51.462;6.902;2023-07-29T07:43:46;1.58;;;0.98;;
23046;SDS011;11691;51.462;6.902;2023-07-29T07:46:12;2.45;;;1.27;;
23046;SDS011;11691;51.462;6.902;2023-07-29T07:48:38;2.42;;;1.20;;
23046;SDS011;11691;51.462;6.902;2023-07-29T07:51:10;1.25;;;1.00;;
23046;SDS011;11691;51.462;6.902;2023-07-29T07:53:37;2.13;;;0.68;;
23046;SDS011;11691;51.462;6.902;2023-07-29T07:56:03;2.03;;;1.20;;
23046;SDS011;11691;51.462;6.902;2023-07-29T07:58:29;2.22;;;1.00;;
23046;SDS011;11691;51.462;6.902;2023-07-29T08:01:28;3.47;;;1.20;;
23046;SDS011;11691;51.462;6.902;2023-07-29T08:03:47;4.40;;;1.20;;
23046;SDS011;11691;51.462;6.902;2023-07-29T08:06:13;1.33;;;0.95;;
23046;SDS011;11691;51.462;6.902;2023-07-29T08:08:39;2.20;;;1.00;;
23046;SDS011;11691;51.462;6.902;2023-07-29T08:11:05;3.28;;;1.20;;
23046;SDS011;11691;51.462;6.902;2023-07-29T08:13:31;1.10;;;0.80;;
23046;SDS011;11691;51.462;6.902;2023-07-29T08:15:57;2.13;;;0.70;;
23046;SDS011;11691;51.462;6.902;2023-07-29T08:18:23;2.80;;;0.90;;
23046;SDS011;11691;51.462;6.902;2023-07-29T08:20:53;1.73;;;0.80;;
23046;SDS011;11691;51.462;6.902;2023-07-29T08:23:20;0.73;;;0.45;;
23046;SDS011;11691;51.462;6.902;2023-07-29T08:25:50;0.55;;;0.38;;
23046;SDS011;11691;51.462;6.902;2023-07-29T08:28:16;0.77;;;0.63;;
23046;SDS011;11691;51.462;6.902;2023-07-29T08:30:42;0.85;;;0.65;;
23046;SDS011;11691;51.462;6.902;2023-07-29T08:33:08;1.63;;;0.73;;
23046;SDS011;11691;51.462;6.902;2023-07-29T08:35:34;1.63;;;0.60;;
23046;SDS011;11691;51.462;6.902;2023-07-29T08:38:01;0.77;;;0.57;;
23046;SDS011;11691;51.462;6.902;2023-07-29T08:40:28;2.05;;;0.70;;
23046;SDS011;11691;51.462;6.902;2023-07-29T08:42:55;2.05;;;0.70;;
23046;SDS011;11691;51.462;6.902;2023-07-29T08:45:22;3.42;;;0.70;;
23046;SDS011;11691;51.462;6.902;2023-07-29T08:47:49;0.35;;;0.30;;
23046;SDS011;11691;51.462;6.902;2023-07-29T08:50:16;0.75;;;0.60;;
23046;SDS011;11691;51.462;6.902;2023-07-29T08:52:42;0.90;;;0.60;;
23046;SDS011;11691;51.462;6.902;2023-07-29T08:55:09;1.13;;;0.80;;
23046;SDS011;11691;51.462;6.902;2023-07-29T08:57:35;1.00;;;0.70;;
23046;SDS011;11691;51.462;6.902;2023-07-29T09:00:01;0.65;;;0.47;;
23046;SDS011;11691;51.462;6.902;2023-07-29T09:02:28;1.52;;;0.80;;
23046;SDS011;11691;51.462;6.902;2023-07-29T09:04:54;2.42;;;0.80;;
23046;SDS011;11691;51.462;6.902;2023-07-29T09:07:20;2.00;;;0.82;;
23046;SDS011;11691;51.462;6.902;2023-07-29T09:09:46;1.17;;;1.00;;
23046;SDS011;11691;51.462;6.902;2023-07-29T09:12:11;1.77;;;1.10;;
23046;SDS011;11691;51.462;6.902;2023-07-29T09:14:37;2.08;;;1.45;;
23046;SDS011;11691;51.462;6.902;2023-07-29T09:17:06;2.28;;;1.17;;
23046;SDS011;11691;51.462;6.902;2023-07-29T09:19:33;2.33;;;1.40;;
23046;SDS011;11691;51.462;6.902;2023-07-29T09:21:59;2.30;;;1.00;;
23046;SDS011;11691;51.462;6.902;2023-07-29T09:24:25;4.68;;;0.98;;
23046;SDS011;11691;51.462;6.902;2023-07-29T09:26:55;1.05;;;0.65;;
23046;SDS011;11691;51.462;6.902;2023-07-29T09:29:22;1.05;;;0.63;;
23046;SDS011;11691;51.462;6.902;2023-07-29T09:31:48;2.65;;;0.80;;
23046;SDS011;11691;51.462;6.902;2023-07-29T09:34:15;1.00;;;0.70;;
23046;SDS011;11691;51.462;6.902;2023-07-29T09:36:44;0.73;;;0.60;;
23046;SDS011;11691;51.462;6.902;2023-07-29T09:39:11;1.65;;;1.10;;
23046;SDS011;11691;51.462;6.902;2023-07-29T09:41:40;1.20;;;0.88;;
23046;SDS011;11691;51.462;6.902;2023-07-29T09:44:06;2.53;;;0.90;;
23046;SDS011;11691;51.462;6.902;2023-07-29T09:46:33;2.33;;;1.10;;
23046;SDS011;11691;51.462;6.902;2023-07-29T09:49:01;1.20;;;0.77;;
23046;SDS011;11691;51.462;6.902;2023-07-29T09:51:27;1.40;;;0.88;;
23046;SDS011;11691;51.462;6.902;2023-07-29T09:53:53;1.30;;;1.00;;
23046;SDS011;11691;51.462;6.902;2023-07-29T09:56:23;1.45;;;0.95;;
23046;SDS011;11691;51.462;6.902;2023-07-29T09:58:50;1.13;;;0.82;;
23046;SDS011;11691;51.462;6.902;2023-07-29T10:01:16;1.33;;;0.90;;
23046;SDS011;11691;51.462;6.902;2023-07-29T10:03:44;3.38;;;1.20;;
23046;SDS011;11691;51.462;6.902;2023-07-29T10:06:11;0.88;;;0.77;;
23046;SDS011;11691;51.462;6.902;2023-07-29T10:08:37;1.90;;;0.90;;
23046;SDS011;11691;51.462;6.902;2023-07-29T10:11:09;2.83;;;0.90;;
23046;SDS011;11691;51.462;6.902;2023-07-29T10:13:35;1.70;;;0.90;;
23046;SDS011;11691;51.462;6.902;2023-07-29T10:16:02;1.90;;;0.90;;
23046;SDS011;11691;51.462;6.902;2023-07-29T10:18:29;1.83;;;0.93;;
23046;SDS011;11691;51.462;6.902;2023-07-29T10:20:56;0.88;;;0.75;;
23046;SDS011;11691;51.462;6.902;2023-07-29T10:23:22;1.10;;;0.85;;
23046;SDS011;11691;51.462;6.902;2023-07-29T10:26:02;1.30;;;0.90;;
23046;SDS011;11691;51.462;6.902;2023-07-29T10:28:29;1.13;;;0.80;;
23046;SDS011;11691;51.462;6.902;2023-07-29T10:30:56;2.63;;;0.90;;
23046;SDS011;11691;51.462;6.902;2023-07-29T10:33:22;2.25;;;1.10;;
23046;SDS011;11691;51.462;6.902;2023-07-29T10:35:48;1.08;;;0.80;;
23046;SDS011;11691;51.462;6.902;2023-07-29T10:38:15;2.90;;;0.90;;
23046;SDS011;11691;51.462;6.902;2023-07-29T10:40:45;3.90;;;1.00;;
23046;SDS011;11691;51.462;6.902;2023-07-29T10:43:15;1.10;;;0.80;;
23046;SDS011;11691;51.462;6.902;2023-07-29T10:45:48;2.38;;;0.98;;
23046;SDS011;11691;51.462;6.902;2023-07-29T10:48:39;1.20;;;0.80;;
23046;SDS011;11691;51.462;6.902;2023-07-29T10:53:47;2.75;;;1.10;;
23046;SDS011;11691;51.462;6.902;2023-07-29T10:56:13;5.13;;;1.50;;
23046;SDS011;11691;51.462;6.902;2023-07-29T10:58:50;1.45;;;1.20;;
23046;SDS011;11691;51.462;6.902;2023-07-29T11:01:26;1.85;;;1.05;;
23046;SDS011;11691;51.462;6.902;2023-07-29T11:04:29;2.85;;;1.20;;
23046;SDS011;11691;51.462;6.902;2023-07-29T11:20:08;1.42;;;0.80;;
23046;SDS011;11691;51.462;6.902;2023-07-29T11:22:35;1.90;;;1.10;;
23046;SDS011;11691;51.462;6.902;2023-07-29T11:25:01;2.10;;;1.10;;
23046;SDS011;11691;51.462;6.902;2023-07-29T11:27:27;1.50;;;0.85;;
23046;SDS011;11691;51.462;6.902;2023-07-29T11:30:03;2.53;;;1.13;;
23046;SDS011;11691;51.462;6.902;2023-07-29T11:32:30;3.08;;;0.98;;
23046;SDS011;11691;51.462;6.902;2023-07-29T11:35:01;3.00;;;1.48;;
23046;SDS011;11691;51.462;6.902;2023-07-29T11:37:37;2.13;;;1.10;;
23046;SDS011;11691;51.462;6.902;2023-07-29T11:40:04;1.52;;;0.85;;
23046;SDS011;11691;51.462;6.902;2023-07-29T11:42:31;2.85;;;1.20;;
23046;SDS011;11691;51.462;6.902;2023-07-29T11:44:58;2.08;;;1.35;;
23046;SDS011;11691;51.462;6.902;2023-07-29T11:47:24;2.35;;;1.40;;
23046;SDS011;11691;51.462;6.902;2023-07-29T11:49:51;0.95;;;0.80;;
23046;SDS011;11691;51.462;6.902;2023-07-29T11:52:17;1.85;;;1.10;;
23046;SDS011;11691;51.462;6.902;2023-07-29T11:54:44;3.42;;;0.85;;
23046;SDS011;11691;51.462;6.902;2023-07-29T11:57:11;2.30;;;1.00;;
23046;SDS011;11691;51.462;6.902;2023-07-29T11:59:38;3.13;;;1.52;;
23046;SDS011;11691;51.462;6.902;2023-07-29T12:02:06;2.10;;;1.40;;
23046;SDS011;11691;51.462;6.902;2023-07-29T12:04:34;1.98;;;1.20;;
23046;SDS011;11691;51.462;6.902;2023-07-29T12:07:00;4.13;;;1.30;;
23046;SDS011;11691;51.462;6.902;2023-07-29T12:09:27;3.20;;;1.20;;
23046;SDS011;11691;51.462;6.902;2023-07-29T12:11:53;1.17;;;1.00;;
23046;SDS011;11691;51.462;6.902;2023-07-29T12:14:19;1.70;;;1.20;;
23046;SDS011;11691;51.462;6.902;2023-07-29T12:16:47;1.92;;;1.30;;
23046;SDS011;11691;51.462;6.902;2023-07-29T12:19:14;2.03;;;1.10;;
23046;SDS011;11691;51.462;6.902;2023-07-29T12:21:43;4.40;;;1.23;;
23046;SDS011;11691;51.462;6.902;2023-07-29T12:24:09;2.58;;;1.17;;
23046;SDS011;11691;51.462;6.902;2023-07-29T12:26:35;2.17;;;1.20;;
23046;SDS011;11691;51.462;6.902;2023-07-29T12:29:14;3.88;;;1.30;;
23046;SDS011;11691;51.462;6.902;2023-07-29T12:31:40;2.88;;;1.40;;
23046;SDS011;11691;51.462;6.902;2023-07-29T12:34:06;3.13;;;1.17;;
23046;SDS011;11691;51.462;6.902;2023-07-29T12:36:49;1.48;;;1.10;;
23046;SDS011;11691;51.462;6.902;2023-07-29T12:39:17;3.35;;;1.40;;
23046;SDS011;11691;51.462;6.902;2023-07-29T12:41:43;4.07;;;1.30;;
23046;SDS011;11691;51.462;6.902;2023-07-29T12:44:09;2.28;;;1.50;;
23046;SDS011;11691;51.462;6.902;2023-07-29T12:46:35;1.45;;;1.02;;
23046;SDS011;11691;51.462;6.902;2023-07-29T12:49:01;2.67;;;1.00;;
23046;SDS011;11691;51.462;6.902;2023-07-29T12:51:27;1.20;;;0.85;;
23046;SDS011;11691;51.462;6.902;2023-07-29T12:53:54;1.27;;;0.90;;
23046;SDS011;11691;51.462;6.902;2023-07-29T12:56:20;2.95;;;1.15;;
23046;SDS011;11691;51.462;6.902;2023-07-29T12:58:46;2.50;;;1.13;;
23046;SDS011;11691;51.462;6.902;2023-07-29T13:01:12;3.85;;;1.15;;
23046;SDS011;11691;51.462;6.902;2023-07-29T13:03:42;2.58;;;1.30;;
23046;SDS011;11691;51.462;6.902;2023-07-29T13:06:08;1.10;;;1.00;;
23046;SDS011;11691;51.462;6.902;2023-07-29T13:08:34;2.40;;;1.17;;
23046;SDS011;11691;51.462;6.902;2023-07-29T13:10:59;1.65;;;1.00;;
23046;SDS011;11691;51.462;6.902;2023-07-29T13:13:25;2.03;;;0.90;;
23046;SDS011;11691;51.462;6.902;2023-07-29T13:15:51;1.73;;;1.00;;
23046;SDS011;11691;51.462;6.902;2023-07-29T13:18:17;2.15;;;1.00;;
23046;SDS011;11691;51.462;6.902;2023-07-29T13:20:43;1.65;;;1.10;;
23046;SDS011;11691;51.462;6.902;2023-07-29T13:23:09;1.88;;;0.95;;
23046;SDS011;11691;51.462;6.902;2023-07-29T13:25:35;1.60;;;0.98;;
23046;SDS011;11691;51.462;6.902;2023-07-29T13:28:01;2.50;;;1.10;;
23046;SDS011;11691;51.462;6.902;2023-07-29T13:30:27;2.00;;;1.30;;
23046;SDS011;11691;51.462;6.902;2023-07-29T13:32:53;2.72;;;1.35;;
23046;SDS011;11691;51.462;6.902;2023-07-29T13:35:19;3.97;;;1.38;;
23046;SDS011;11691;51.462;6.902;2023-07-29T13:37:45;1.70;;;1.20;;
23046;SDS011;11691;51.462;6.902;2023-07-29T13:40:11;1.67;;;1.13;;
23046;SDS011;11691;51.462;6.902;2023-07-29T13:42:37;2.15;;;1.38;;
23046;SDS011;11691;51.462;6.902;2023-07-29T13:45:03;2.40;;;1.40;;
23046;SDS011;11691;51.462;6.902;2023-07-29T13:47:29;3.63;;;1.30;;
23046;SDS011;11691;51.462;6.902;2023-07-29T13:49:55;3.28;;;1.20;;
23046;SDS011;11691;51.462;6.902;2023-07-29T13:52:21;3.80;;;1.27;;
23046;SDS011;11691;51.462;6.902;2023-07-29T13:54:46;4.68;;;1.40;;
23046;SDS011;11691;51.462;6.902;2023-07-29T13:57:12;2.00;;;1.30;;
23046;SDS011;11691;51.462;6.902;2023-07-29T13:59:38;1.80;;;1.52;;
23046;SDS011;11691;51.462;6.902;2023-07-29T14:02:05;1.45;;;1.27;;
23046;SDS011;11691;51.462;6.902;2023-07-29T14:04:32;2.83;;;1.67;;
23046;SDS011;11691;51.462;6.902;2023-07-29T14:06:58;4.32;;;1.60;;
23046;SDS011;11691;51.462;6.902;2023-07-29T14:09:24;7.80;;;2.80;;
23046;SDS011;11691;51.462;6.902;2023-07-29T14:11:50;3.67;;;2.42;;
23046;SDS011;11691;51.462;6.902;2023-07-29T14:14:16;5.05;;;2.42;;
23046;SDS011;11691;51.462;6.902;2023-07-29T14:16:42;4.45;;;2.00;;
23046;SDS011;11691;51.462;6.902;2023-07-29T14:19:08;4.10;;;1.13;;
23046;SDS011;11691;51.462;6.902;2023-07-29T14:21:34;2.47;;;0.80;;
23046;SDS011;11691;51.462;6.902;2023-07-29T14:24:00;1.23;;;0.70;;
23046;SDS011;11691;51.462;6.902;2023-07-29T14:26:26;1.73;;;1.00;;
23046;SDS011;11691;51.462;6.902;2023-07-29T14:28:52;2.75;;;1.00;;
23046;SDS011;11691;51.462;6.902;2023-07-29T14:31:18;2.67;;;1.17;;
23046;SDS011;11691;51.462;6.902;2023-07-29T14:33:44;6.70;;;1.30;;
23046;SDS011;11691;51.462;6.902;2023-07-29T14:36:10;2.97;;;1.20;;
23046;SDS011;11691;51.462;6.902;2023-07-29T14:38:36;1.48;;;0.80;;
23046;SDS011;11691;51.462;6.902;2023-07-29T14:41:03;1.10;;;0.85;;
23046;SDS011;11691;51.462;6.902;2023-07-29T14:43:30;2.13;;;1.23;;
23046;SDS011;11691;51.462;6.902;2023-07-29T14:45:56;3.03;;;1.10;;
23046;SDS011;11691;51.462;6.902;2023-07-29T14:48:21;2.70;;;1.10;;
23046;SDS011;11691;51.462;6.902;2023-07-29T14:50:48;2.53;;;1.10;;
23046;SDS011;11691;51.462;6.902;2023-07-29T14:53:14;1.73;;;1.23;;
23046;SDS011;11691;51.462;6.902;2023-07-29T14:55:39;4.68;;;1.20;;
23046;SDS011;11691;51.462;6.902;2023-07-29T14:58:05;3.35;;;1.33;;
23046;SDS011;11691;51.462;6.902;2023-07-29T15:00:32;4.78;;;1.60;;
23046;SDS011;11691;51.462;6.902;2023-07-29T15:02:58;4.05;;;1.83;;
23046;SDS011;11691;51.462;6.902;2023-07-29T15:05:24;4.10;;;1.80;;